Talanta — SJEP — position and weather

sailwx.info

Track history (hours):
 
Tides and Currents Weather Stations Pressure Air Temp Water Temp Dewpoint Dewpoint Depression Visibility Wind Speed Wind Dir Waves Ship Positions

Talanta

Last reported at 2018-Feb-20 15:54 UTC. Time now 2018-Feb-20 17:34 UTC.
Position N 18°08' W 063°05'.

Length 12 m.

Type: Sailing vessel. MMSI: 265756360.

Date/timePositionNaut miles runAvg speedWind from/ knotsBaromVisibWave heightAir tempDewpointWater temp
2018-Feb-20 15:54N 18°08' W 063°05'3 4.7
2018-Feb-20 15:17N 18°06' W 063°08'1 3.9
2018-Feb-20 14:55N 18°06' W 063°09'4 7.2
2018-Feb-20 14:24N 18°02' W 063°08'4 9.3
2018-Feb-20 13:56N 18°00' W 063°04'12 3.3
2018-Feb-20 10:22N 17°51' W 062°56'3 7.4
2018-Feb-20 10:00N 17°53' W 062°58'4 7.4
2018-Feb-20 09:30N 17°54' W 063°02'4 7.6
2018-Feb-20 09:00N 17°55' W 063°06'4 7.6
2018-Feb-20 08:30N 17°56' W 063°10'3 5.4
2018-Feb-20 08:00N 17°56' W 063°12'3 7.0
2018-Feb-20 07:30N 17°53' W 063°13'4 7.0
2018-Feb-20 07:00N 17°50' W 063°14'3 7.0
2018-Feb-20 06:30N 17°46' W 063°15'4 7.1
2018-Feb-20 05:59N 17°43' W 063°16'67 9.3
2018-Feb-19 22:47N 17°09' W 062°15'311.9
2018-Feb-19 22:30N 17°12' W 062°13'611.8
2018-Feb-19 21:58N 17°17' W 062°09'511.2
2018-Feb-19 21:30N 17°22' W 062°06'714.1
2018-Feb-19 21:00N 17°27' W 062°01'612.8
2018-Feb-19 20:30N 17°32' W 061°57'3 5.7
2018-Feb-19 19:59N 17°33' W 061°54'611.8
2018-Feb-19 19:30N 17°28' W 061°52'611.5
2018-Feb-19 19:00N 17°23' W 061°49'611.3
2018-Feb-19 18:28N 17°18' W 061°46'511.6
2018-Feb-19 18:00N 17°13' W 061°43'611.6
2018-Feb-19 17:30N 17°08' W 061°41'5 9.6
2018-Feb-19 17:00N 17°03' W 061°39'3 5.6
2018-Feb-19 16:30N 17°01' W 061°41'2 4.6
2018-Feb-19 16:00N 16°60' W 061°43'2 3.8
2018-Feb-19 15:29N 16°59' W 061°45'1 1.9
2018-Feb-19 15:00N 16°58' W 061°45'1 2.7
2018-Feb-19 14:30N 16°59' W 061°46'1 2.7
2018-Feb-19 14:01N 17°00' W 061°47'1 1.7
2018-Feb-19 13:30N 17°01' W 061°46'0 0.0
2018-Feb-18 21:26N 17°01' W 061°46'0 0.6
2018-Feb-18 20:59N 17°00' W 061°46'0 0.0
2018-Feb-18 20:29N 17°00' W 061°46'0 0.0
2018-Feb-18 19:59N 17°00' W 061°46'0 0.0
2018-Feb-18 19:28N 17°00' W 061°46'0 0.6
2018-Feb-18 18:59N 17°01' W 061°46'0 0.0
2018-Feb-18 18:29N 17°01' W 061°46'0 0.0
2018-Feb-18 17:59N 17°01' W 061°46'1 1.4
2018-Feb-18 17:30N 16°60' W 061°46'2 5.0
2018-Feb-18 17:00N 16°59' W 061°48'2 4.3
2018-Feb-18 16:30N 16°59' W 061°51'4 6.5
2018-Feb-18 15:56N 16°57' W 061°47'4 9.1
2018-Feb-18 15:30N 16°58' W 061°44'2 3.3
2018-Feb-18 15:00N 16°59' W 061°44'2 3.8
2018-Feb-18 14:30N 17°00' W 061°46'0 0.0
2018-Feb-17 21:23N 17°01' W 061°46'0 0.0
2018-Feb-17 20:59N 17°01' W 061°46'0 0.0
2018-Feb-17 20:29N 17°01' W 061°46'0 0.0
2018-Feb-17 19:59N 17°01' W 061°46'1 2.0
2018-Feb-17 19:30N 16°60' W 061°46'3 5.2
2018-Feb-17 19:00N 16°59' W 061°49'0 0.8
2018-Feb-17 18:30N 16°59' W 061°49'510.0
2018-Feb-17 18:00N 16°57' W 061°44'4 8.6
2018-Feb-17 17:30N 16°54' W 061°41'4 7.3
2018-Feb-17 16:59N 16°57' W 061°39'5 9.4
2018-Feb-17 16:30N 17°01' W 061°39'2 4.6
2018-Feb-17 16:00N 17°01' W 061°41'3 5.1
2018-Feb-17 15:30N 16°60' W 061°44'2 4.1
2018-Feb-17 15:00N 16°60' W 061°46'1 0.0
2018-Feb-16 23:28N 17°01' W 061°46'0 0.0
2018-Feb-16 22:58N 17°01' W 061°46'0 0.0
2018-Feb-16 22:28N 17°01' W 061°46'0 0.0
2018-Feb-16 21:58N 17°01' W 061°46'0 0.0
2018-Feb-16 21:28N 17°01' W 061°46'0 0.0
2018-Feb-16 20:58N 17°01' W 061°46'0 0.0
2018-Feb-16 20:28N 17°01' W 061°46'1 2.5
2018-Feb-16 20:00N 16°59' W 061°46'4 7.8
2018-Feb-16 19:30N 16°57' W 061°43'4 7.3
2018-Feb-16 19:00N 17°00' W 061°43'3 5.0
2018-Feb-16 18:30N 16°59' W 061°45'  
Track history (hours):
 
Tides and Currents Weather Stations Pressure Air Temp Water Temp Dewpoint Dewpoint Depression Visibility Wind Speed Wind Dir Waves Ship Positions

Talanta

Last reported at 2018-Feb-20 15:54 UTC. Time now 2018-Feb-20 17:34 UTC.
Position N 18°08' W 063°05'.

Length 12 m.

Type: Sailing vessel. MMSI: 265756360.

Date/timePositionNaut miles runAvg speedWind from/ knotsBaromVisibWave heightAir tempDewpointWater temp
2018-Feb-20 15:54N 18°08' W 063°05'3 4.7
2018-Feb-20 15:17N 18°06' W 063°08'1 3.9
2018-Feb-20 14:55N 18°06' W 063°09'4 7.2
2018-Feb-20 14:24N 18°02' W 063°08'4 9.3
2018-Feb-20 13:56N 18°00' W 063°04'12 3.3
2018-Feb-20 10:22N 17°51' W 062°56'3 7.4
2018-Feb-20 10:00N 17°53' W 062°58'4 7.4
2018-Feb-20 09:30N 17°54' W 063°02'4 7.6
2018-Feb-20 09:00N 17°55' W 063°06'4 7.6
2018-Feb-20 08:30N 17°56' W 063°10'3 5.4
2018-Feb-20 08:00N 17°56' W 063°12'3 7.0
2018-Feb-20 07:30N 17°53' W 063°13'4 7.0
2018-Feb-20 07:00N 17°50' W 063°14'3 7.0
2018-Feb-20 06:30N 17°46' W 063°15'4 7.1
2018-Feb-20 05:59N 17°43' W 063°16'67 9.3
2018-Feb-19 22:47N 17°09' W 062°15'311.9
2018-Feb-19 22:30N 17°12' W 062°13'611.8
2018-Feb-19 21:58N 17°17' W 062°09'511.2
2018-Feb-19 21:30N 17°22' W 062°06'714.1
2018-Feb-19 21:00N 17°27' W 062°01'612.8
2018-Feb-19 20:30N 17°32' W 061°57'3 5.7
2018-Feb-19 19:59N 17°33' W 061°54'611.8
2018-Feb-19 19:30N 17°28' W 061°52'611.5
2018-Feb-19 19:00N 17°23' W 061°49'611.3
2018-Feb-19 18:28N 17°18' W 061°46'511.6
2018-Feb-19 18:00N 17°13' W 061°43'611.6
2018-Feb-19 17:30N 17°08' W 061°41'5 9.6
2018-Feb-19 17:00N 17°03' W 061°39'3 5.6
2018-Feb-19 16:30N 17°01' W 061°41'2 4.6
2018-Feb-19 16:00N 16°60' W 061°43'2 3.8
2018-Feb-19 15:29N 16°59' W 061°45'1 1.9
2018-Feb-19 15:00N 16°58' W 061°45'1 2.7
2018-Feb-19 14:30N 16°59' W 061°46'1 2.7
2018-Feb-19 14:01N 17°00' W 061°47'1 1.7
2018-Feb-19 13:30N 17°01' W 061°46'0 0.0
2018-Feb-18 21:26N 17°01' W 061°46'0 0.6
2018-Feb-18 20:59N 17°00' W 061°46'0 0.0
2018-Feb-18 20:29N 17°00' W 061°46'0 0.0
2018-Feb-18 19:59N 17°00' W 061°46'0 0.0
2018-Feb-18 19:28N 17°00' W 061°46'0 0.6
2018-Feb-18 18:59N 17°01' W 061°46'0 0.0
2018-Feb-18 18:29N 17°01' W 061°46'0 0.0
2018-Feb-18 17:59N 17°01' W 061°46'1 1.4
2018-Feb-18 17:30N 16°60' W 061°46'2 5.0
2018-Feb-18 17:00N 16°59' W 061°48'2 4.3
2018-Feb-18 16:30N 16°59' W 061°51'4 6.5
2018-Feb-18 15:56N 16°57' W 061°47'4 9.1
2018-Feb-18 15:30N 16°58' W 061°44'2 3.3
2018-Feb-18 15:00N 16°59' W 061°44'2 3.8
2018-Feb-18 14:30N 17°00' W 061°46'0 0.0
2018-Feb-17 21:23N 17°01' W 061°46'0 0.0
2018-Feb-17 20:59N 17°01' W 061°46'0 0.0
2018-Feb-17 20:29N 17°01' W 061°46'0 0.0
2018-Feb-17 19:59N 17°01' W 061°46'1 2.0
2018-Feb-17 19:30N 16°60' W 061°46'3 5.2
2018-Feb-17 19:00N 16°59' W 061°49'0 0.8
2018-Feb-17 18:30N 16°59' W 061°49'510.0
2018-Feb-17 18:00N 16°57' W 061°44'4 8.6
2018-Feb-17 17:30N 16°54' W 061°41'4 7.3
2018-Feb-17 16:59N 16°57' W 061°39'5 9.4
2018-Feb-17 16:30N 17°01' W 061°39'2 4.6
2018-Feb-17 16:00N 17°01' W 061°41'3 5.1
2018-Feb-17 15:30N 16°60' W 061°44'2 4.1
2018-Feb-17 15:00N 16°60' W 061°46'1 0.0
2018-Feb-16 23:28N 17°01' W 061°46'0 0.0
2018-Feb-16 22:58N 17°01' W 061°46'0 0.0
2018-Feb-16 22:28N 17°01' W 061°46'0 0.0
2018-Feb-16 21:58N 17°01' W 061°46'0 0.0
2018-Feb-16 21:28N 17°01' W 061°46'0 0.0
2018-Feb-16 20:58N 17°01' W 061°46'0 0.0
2018-Feb-16 20:28N 17°01' W 061°46'1 2.5
2018-Feb-16 20:00N 16°59' W 061°46'4 7.8
2018-Feb-16 19:30N 16°57' W 061°43'4 7.3
2018-Feb-16 19:00N 17°00' W 061°43'3 5.0
2018-Feb-16 18:30N 16°59' W 061°45'  

Dump ship's entire track history